createdAt,value
2019-05-26T00:00:32.622Z,13.60
2019-05-26T00:03:02.072Z,13.60
2019-05-26T00:05:30.928Z,13.50
2019-05-26T00:07:59.807Z,13.50
2019-05-26T00:10:28.743Z,13.50
2019-05-26T00:12:57.548Z,13.50
2019-05-26T00:15:26.594Z,13.40
2019-05-26T00:17:55.456Z,13.40
2019-05-26T00:20:24.327Z,13.30
2019-05-26T00:22:53.180Z,13.30
2019-05-26T00:25:22.137Z,13.30
2019-05-26T00:27:50.980Z,13.20
2019-05-26T00:30:20.027Z,13.20
2019-05-26T00:32:49.270Z,13.10
2019-05-26T00:35:18.167Z,13.00
2019-05-26T00:37:49.877Z,12.90
2019-05-26T00:40:18.879Z,12.90
2019-05-26T00:42:47.777Z,12.90
2019-05-26T00:45:16.578Z,12.90
2019-05-26T00:47:45.499Z,12.90
2019-05-26T00:50:14.944Z,12.90
2019-05-26T00:52:43.879Z,12.90
2019-05-26T00:55:13.238Z,12.90
2019-05-26T00:57:42.069Z,12.80
2019-05-26T01:00:15.204Z,12.80
2019-05-26T01:02:44.266Z,12.90
2019-05-26T01:05:13.676Z,12.80
2019-05-26T01:07:42.690Z,12.80
2019-05-26T01:10:11.584Z,12.80
2019-05-26T01:12:40.398Z,12.80
2019-05-26T01:15:09.315Z,12.80
2019-05-26T01:17:38.475Z,12.80
2019-05-26T01:20:07.390Z,12.70
2019-05-26T01:22:36.432Z,12.70
2019-05-26T01:25:05.587Z,12.80
2019-05-26T01:27:34.510Z,12.70
2019-05-26T01:30:03.673Z,12.70
2019-05-26T01:32:32.646Z,12.70
2019-05-26T01:35:01.457Z,12.70
2019-05-26T01:37:30.381Z,12.70
2019-05-26T01:39:59.156Z,12.70
2019-05-26T01:42:28.064Z,12.60
2019-05-26T01:44:56.918Z,12.60
2019-05-26T01:47:25.766Z,12.60
2019-05-26T01:49:54.563Z,12.60
2019-05-26T01:52:23.402Z,12.70
2019-05-26T01:54:52.236Z,12.60
2019-05-26T01:57:21.051Z,12.60
2019-05-26T01:59:50.073Z,12.60
2019-05-26T02:02:19.060Z,12.60
2019-05-26T02:04:47.952Z,12.60
2019-05-26T02:07:16.831Z,12.60
2019-05-26T02:09:45.719Z,12.60
2019-05-26T02:12:14.467Z,12.60
2019-05-26T02:14:43.236Z,12.60
2019-05-26T02:17:12.406Z,12.60
2019-05-26T02:19:41.376Z,12.60
2019-05-26T02:22:10.148Z,12.60
2019-05-26T02:24:39.055Z,12.60
2019-05-26T02:27:07.937Z,12.60
2019-05-26T02:29:36.715Z,12.50
2019-05-26T02:32:05.470Z,12.50
2019-05-26T02:34:34.225Z,12.50
2019-05-26T02:37:02.957Z,12.40
2019-05-26T02:39:31.795Z,12.40
2019-05-26T02:42:00.630Z,12.40
2019-05-26T02:44:29.374Z,12.40
2019-05-26T02:46:58.390Z,12.40
2019-05-26T02:49:27.181Z,12.30
2019-05-26T02:51:56.002Z,12.20
2019-05-26T02:54:24.747Z,12.20
2019-05-26T02:56:53.617Z,12.20
2019-05-26T02:59:22.587Z,12.10
2019-05-26T03:02:02.926Z,12.10
2019-05-26T03:04:21.932Z,12.00
2019-05-26T03:06:50.884Z,12.00
2019-05-26T03:09:23.333Z,11.90
2019-05-26T03:11:50.475Z,11.90
2019-05-26T03:14:19.645Z,11.80
2019-05-26T03:16:48.359Z,11.80
2019-05-26T03:19:17.258Z,11.80
2019-05-26T03:21:46.408Z,11.80
2019-05-26T03:24:15.518Z,11.80
2019-05-26T03:26:44.446Z,11.70
2019-05-26T03:29:13.197Z,11.70
2019-05-26T03:31:42.038Z,11.70
2019-05-26T03:34:10.950Z,11.70
2019-05-26T03:36:39.872Z,11.70
2019-05-26T03:39:08.789Z,11.70
2019-05-26T03:41:37.752Z,11.70
2019-05-26T03:44:06.634Z,11.70
2019-05-26T03:46:35.420Z,11.70
2019-05-26T03:49:04.134Z,11.70
2019-05-26T03:51:33.010Z,11.80
2019-05-26T03:54:01.873Z,11.80
2019-05-26T03:56:31.036Z,11.80
2019-05-26T03:58:59.964Z,11.70
2019-05-26T04:01:28.983Z,11.70
2019-05-26T04:03:58.404Z,11.70
2019-05-26T04:06:27.378Z,11.70
2019-05-26T04:08:56.234Z,11.70
2019-05-26T04:11:25.193Z,11.80
2019-05-26T04:13:54.190Z,11.80
2019-05-26T04:16:23.170Z,11.80
2019-05-26T04:18:52.126Z,11.80
2019-05-26T04:21:21.213Z,11.90
2019-05-26T04:23:51.215Z,11.90
2019-05-26T04:26:20.093Z,12.00
2019-05-26T04:28:52.612Z,11.90
2019-05-26T04:31:21.476Z,11.90
2019-05-26T04:33:50.333Z,12.00
2019-05-26T04:36:19.126Z,12.00
2019-05-26T04:39:07.110Z,12.10
2019-05-26T04:41:35.995Z,12.10
2019-05-26T04:44:04.770Z,12.10
2019-05-26T04:46:33.638Z,12.10
2019-05-26T04:49:02.430Z,12.20
2019-05-26T04:51:31.248Z,12.30
2019-05-26T04:54:00.083Z,12.30
2019-05-26T04:56:28.869Z,12.40
2019-05-26T04:58:57.672Z,12.50
2019-05-26T05:01:26.478Z,12.50
2019-05-26T05:03:55.292Z,12.60
2019-05-26T05:06:24.017Z,12.60
2019-05-26T05:08:52.699Z,12.70
2019-05-26T05:11:21.398Z,12.60
2019-05-26T05:13:50.187Z,12.70
2019-05-26T05:16:18.899Z,12.80
2019-05-26T05:18:47.615Z,13.00
2019-05-26T05:21:16.334Z,13.00
2019-05-26T05:23:45.078Z,13.10
2019-05-26T05:26:13.756Z,13.30
2019-05-26T05:28:42.494Z,13.30
2019-05-26T05:31:11.286Z,13.30
2019-05-26T05:33:40.069Z,13.40
2019-05-26T05:36:08.764Z,13.50
2019-05-26T05:38:37.457Z,13.60
2019-05-26T05:41:06.162Z,13.70
2019-05-26T05:43:34.844Z,13.80
2019-05-26T05:46:03.695Z,13.90
2019-05-26T05:48:32.465Z,13.90
2019-05-26T05:51:01.163Z,13.90
2019-05-26T05:53:29.984Z,14.10
2019-05-26T05:55:58.725Z,14.20
2019-05-26T05:58:27.509Z,14.00
2019-05-26T06:00:56.180Z,14.10
2019-05-26T06:03:24.955Z,14.30
2019-05-26T06:05:53.915Z,14.40
2019-05-26T06:08:22.679Z,14.30
2019-05-26T06:10:51.509Z,14.40
2019-05-26T06:13:20.228Z,14.50
2019-05-26T06:15:54.484Z,14.70
2019-05-26T06:18:23.184Z,14.60
2019-05-26T06:20:51.896Z,14.40
2019-05-26T06:23:20.588Z,14.30
2019-05-26T06:25:49.264Z,14.30
2019-05-26T06:28:18.097Z,14.30
2019-05-26T06:30:46.830Z,14.40
2019-05-26T06:33:15.587Z,14.40
2019-05-26T06:35:44.447Z,14.50
2019-05-26T06:38:13.297Z,14.50
2019-05-26T06:40:42.045Z,14.60
2019-05-26T06:43:10.877Z,14.70
2019-05-26T06:45:39.603Z,14.80
2019-05-26T06:48:08.535Z,14.90
2019-05-26T06:50:37.257Z,14.90
2019-05-26T06:53:06.049Z,14.90
2019-05-26T06:55:34.805Z,15.00
2019-05-26T06:58:03.567Z,15.10
2019-05-26T07:00:32.300Z,15.00
2019-05-26T07:03:01.038Z,15.20
2019-05-26T07:05:29.912Z,15.00
2019-05-26T07:07:58.705Z,15.00
2019-05-26T07:10:27.447Z,14.80
2019-05-26T07:12:56.204Z,14.80
2019-05-26T07:15:24.939Z,14.80
2019-05-26T07:17:53.710Z,14.80
2019-05-26T07:20:23.001Z,14.90
2019-05-26T07:22:51.729Z,15.00
2019-05-26T07:25:20.471Z,15.30
2019-05-26T07:27:49.132Z,15.40
2019-05-26T07:30:17.932Z,15.50
2019-05-26T07:32:46.749Z,15.70
2019-05-26T07:35:15.496Z,15.80
2019-05-26T07:37:44.270Z,16.10
2019-05-26T07:40:13.004Z,16.20
2019-05-26T07:42:41.760Z,16.20
2019-05-26T07:45:10.585Z,16.50
2019-05-26T07:47:39.297Z,16.50
2019-05-26T07:50:08.000Z,16.50
2019-05-26T07:52:36.695Z,16.60
2019-05-26T07:55:05.590Z,16.50
2019-05-26T07:57:34.697Z,16.60
2019-05-26T08:00:03.522Z,16.70
2019-05-26T08:02:32.321Z,16.70
2019-05-26T08:05:01.016Z,16.70
2019-05-26T08:07:29.760Z,16.60
2019-05-26T08:09:58.547Z,16.60
2019-05-26T08:12:30.402Z,16.70
2019-05-26T08:14:57.743Z,16.70
2019-05-26T08:17:26.467Z,16.60
2019-05-26T08:19:55.251Z,16.80
2019-05-26T08:22:23.925Z,16.90
2019-05-26T08:24:52.670Z,17.10
2019-05-26T08:27:21.421Z,17.30
2019-05-26T08:29:50.146Z,17.40
2019-05-26T08:32:18.883Z,17.70
2019-05-26T08:34:47.782Z,17.80
2019-05-26T08:37:16.558Z,17.70
2019-05-26T08:39:48.342Z,17.70
2019-05-26T08:42:26.757Z,17.80
2019-05-26T08:44:46.234Z,17.90
2019-05-26T08:47:15.028Z,17.90
2019-05-26T08:49:43.752Z,17.80
2019-05-26T08:52:12.461Z,17.90
2019-05-26T08:54:41.412Z,17.70
2019-05-26T08:57:10.141Z,17.70
2019-05-26T08:59:38.912Z,17.70
2019-05-26T09:02:07.595Z,17.70
2019-05-26T09:04:36.639Z,17.60
2019-05-26T09:07:05.585Z,17.70
2019-05-26T09:09:34.504Z,17.80
2019-05-26T09:12:03.299Z,17.80
2019-05-26T09:14:32.067Z,18.00
2019-05-26T09:17:00.977Z,18.10
2019-05-26T09:19:29.757Z,18.30
2019-05-26T09:21:58.470Z,18.50
2019-05-26T09:24:27.247Z,18.60
2019-05-26T09:26:56.185Z,18.70
2019-05-26T09:29:24.873Z,18.80
2019-05-26T09:31:53.732Z,19.00
2019-05-26T09:34:22.535Z,19.00
2019-05-26T09:36:51.240Z,19.20
2019-05-26T09:39:20.029Z,19.40
2019-05-26T09:41:48.954Z,19.40
2019-05-26T09:44:17.802Z,19.60
2019-05-26T09:46:46.693Z,19.80
2019-05-26T09:49:15.440Z,19.80
2019-05-26T09:51:44.142Z,19.70
2019-05-26T09:54:12.992Z,19.70
2019-05-26T09:56:41.803Z,19.80
2019-05-26T09:59:10.636Z,19.90
2019-05-26T10:01:39.427Z,19.90
2019-05-26T10:04:08.140Z,20.00
2019-05-26T10:06:36.847Z,20.10
2019-05-26T10:09:07.361Z,20.20
2019-05-26T10:11:36.274Z,20.20
2019-05-26T10:14:05.060Z,20.30
2019-05-26T10:16:33.853Z,20.30
2019-05-26T10:19:02.616Z,20.30
2019-05-26T10:21:31.699Z,20.30
2019-05-26T10:24:00.452Z,20.50
2019-05-26T10:26:29.311Z,20.30
2019-05-26T10:29:00.558Z,20.30
2019-05-26T10:31:28.507Z,20.20
2019-05-26T10:33:57.232Z,20.20
2019-05-26T10:36:26.011Z,20.20
2019-05-26T10:38:54.714Z,20.40
2019-05-26T10:41:23.529Z,20.40
2019-05-26T10:43:52.320Z,20.30
2019-05-26T10:46:20.982Z,20.40
2019-05-26T10:48:49.758Z,20.50
2019-05-26T10:51:18.506Z,20.60
2019-05-26T10:53:47.267Z,20.80
2019-05-26T10:56:16.043Z,20.60
2019-05-26T10:58:44.985Z,20.80
2019-05-26T11:01:13.679Z,20.80
2019-05-26T11:03:42.551Z,20.60
2019-05-26T11:06:11.497Z,20.70
2019-05-26T11:08:40.310Z,20.90
2019-05-26T11:11:09.013Z,21.10
2019-05-26T11:13:40.638Z,21.10
2019-05-26T11:16:08.240Z,21.30
2019-05-26T11:18:36.982Z,21.40
2019-05-26T11:21:05.671Z,21.50
2019-05-26T11:23:37.527Z,21.50
2019-05-26T11:26:06.261Z,21.70
2019-05-26T11:28:34.969Z,21.80
2019-05-26T11:31:03.740Z,21.70
2019-05-26T11:33:32.449Z,21.90
2019-05-26T11:36:01.219Z,21.70
2019-05-26T11:38:33.254Z,21.50
2019-05-26T11:41:00.462Z,21.50
2019-05-26T11:43:29.158Z,21.80
2019-05-26T11:45:57.993Z,22.10
2019-05-26T11:48:26.685Z,22.00
2019-05-26T11:50:55.499Z,22.20
2019-05-26T11:53:24.189Z,22.30
2019-05-26T11:55:52.977Z,21.90
2019-05-26T11:58:21.768Z,21.90
2019-05-26T12:00:50.711Z,21.60
2019-05-26T12:03:19.475Z,21.80
2019-05-26T12:05:48.244Z,21.90
2019-05-26T12:08:16.932Z,21.90
2019-05-26T12:10:45.667Z,22.20
2019-05-26T12:13:14.424Z,22.20
2019-05-26T12:15:43.196Z,22.20
2019-05-26T12:18:11.877Z,22.10
2019-05-26T12:20:40.586Z,22.50
2019-05-26T12:23:09.389Z,22.10
2019-05-26T12:25:38.086Z,22.10
2019-05-26T12:28:06.815Z,22.20
2019-05-26T12:30:35.509Z,22.50
2019-05-26T12:33:04.286Z,22.50
2019-05-26T12:35:44.290Z,22.30
2019-05-26T12:38:13.069Z,22.30
2019-05-26T12:40:41.910Z,22.10
2019-05-26T12:43:10.682Z,22.10
2019-05-26T12:45:39.410Z,21.90
2019-05-26T12:48:08.146Z,21.90
2019-05-26T12:50:36.985Z,22.00
2019-05-26T12:53:06.305Z,22.00
2019-05-26T12:55:35.057Z,22.30
2019-05-26T12:58:03.783Z,22.30
2019-05-26T13:00:47.627Z,22.40
2019-05-26T13:03:03.194Z,22.50
2019-05-26T13:05:32.096Z,22.50
2019-05-26T13:08:00.809Z,22.40
2019-05-26T13:10:29.515Z,22.60
2019-05-26T13:12:58.312Z,22.90
2019-05-26T13:15:27.070Z,23.00
2019-05-26T13:17:55.915Z,23.10
2019-05-26T13:20:24.629Z,23.10
2019-05-26T13:22:53.380Z,23.30
2019-05-26T13:25:22.293Z,23.20
2019-05-26T13:27:51.204Z,22.90
2019-05-26T13:30:21.590Z,22.80
2019-05-26T13:32:50.464Z,22.80
2019-05-26T13:35:19.227Z,22.90
2019-05-26T13:37:48.012Z,22.80
2019-05-26T13:40:17.931Z,22.70
2019-05-26T13:42:46.669Z,22.70
2019-05-26T13:45:22.289Z,23.00
2019-05-26T13:47:45.998Z,22.80
2019-05-26T13:50:14.907Z,22.80
2019-05-26T13:52:43.601Z,22.80
2019-05-26T13:55:12.969Z,22.70
2019-05-26T13:57:42.161Z,22.90
2019-05-26T14:00:11.552Z,22.90
2019-05-26T14:02:40.453Z,22.70
2019-05-26T14:05:09.164Z,22.50
2019-05-26T14:07:37.983Z,22.20
2019-05-26T14:10:08.506Z,21.90
2019-05-26T14:12:37.596Z,21.60
2019-05-26T14:15:06.742Z,21.50
2019-05-26T14:17:35.598Z,21.30
2019-05-26T14:20:05.607Z,21.20
2019-05-26T14:22:34.320Z,21.30
2019-05-26T14:25:03.240Z,21.20
2019-05-26T14:27:31.989Z,21.10
2019-05-26T14:30:00.752Z,21.10
2019-05-26T14:32:29.609Z,21.20
2019-05-26T14:34:58.418Z,21.10
2019-05-26T14:37:27.587Z,21.10
2019-05-26T14:39:56.565Z,21.10
2019-05-26T14:42:25.692Z,21.20
2019-05-26T14:44:54.737Z,21.30
2019-05-26T14:47:23.487Z,21.30
2019-05-26T14:49:52.261Z,21.40
2019-05-26T14:52:21.033Z,21.50
2019-05-26T14:54:49.810Z,21.50
2019-05-26T14:57:18.503Z,21.70
2019-05-26T14:59:47.276Z,21.70
2019-05-26T15:02:15.983Z,21.60
2019-05-26T15:04:44.727Z,21.70
2019-05-26T15:07:13.500Z,21.70
2019-05-26T15:09:42.264Z,21.80
2019-05-26T15:12:10.997Z,21.80
2019-05-26T15:14:39.758Z,21.60
2019-05-26T15:17:08.444Z,21.70
2019-05-26T15:19:37.219Z,21.70
2019-05-26T15:22:05.957Z,21.80
2019-05-26T15:24:34.854Z,21.80
2019-05-26T15:27:03.567Z,21.90
2019-05-26T15:29:32.469Z,22.00
2019-05-26T15:32:03.141Z,21.80
2019-05-26T15:34:32.276Z,21.90
2019-05-26T15:37:01.487Z,21.90
2019-05-26T15:39:30.203Z,21.80
2019-05-26T15:41:59.196Z,21.90
2019-05-26T15:44:28.095Z,22.00
2019-05-26T15:46:56.979Z,22.20
2019-05-26T15:49:25.931Z,22.10
2019-05-26T15:51:54.663Z,22.20
2019-05-26T15:54:23.441Z,22.20
2019-05-26T15:56:52.432Z,22.20
2019-05-26T15:59:21.230Z,22.30
2019-05-26T16:01:50.014Z,22.20
2019-05-26T16:04:18.816Z,21.80
2019-05-26T16:06:47.496Z,21.70
2019-05-26T16:09:16.296Z,21.50
2019-05-26T16:11:45.000Z,21.40
2019-05-26T16:14:13.793Z,21.40
2019-05-26T16:16:42.506Z,21.30
2019-05-26T16:19:11.322Z,21.30
2019-05-26T16:21:40.074Z,21.30
2019-05-26T16:24:08.958Z,21.30
2019-05-26T16:26:37.734Z,21.30
2019-05-26T16:29:06.571Z,21.30
2019-05-26T16:31:35.331Z,21.20
2019-05-26T16:34:04.023Z,21.20
2019-05-26T16:36:32.788Z,21.20
2019-05-26T16:39:01.832Z,21.00
2019-05-26T16:41:30.556Z,20.90
2019-05-26T16:43:59.261Z,20.90
2019-05-26T16:46:28.076Z,20.90
2019-05-26T16:48:56.900Z,20.80
2019-05-26T16:51:26.163Z,20.70
2019-05-26T16:53:54.839Z,20.70
2019-05-26T16:56:23.631Z,20.70
2019-05-26T16:58:52.356Z,20.80
2019-05-26T17:01:21.122Z,20.80
2019-05-26T17:03:49.927Z,20.80
2019-05-26T17:06:18.720Z,20.80
2019-05-26T17:08:47.467Z,20.80
2019-05-26T17:11:16.296Z,20.80
2019-05-26T17:13:45.013Z,20.90
2019-05-26T17:16:13.846Z,20.80
2019-05-26T17:18:42.611Z,20.80
2019-05-26T17:21:11.482Z,20.80
2019-05-26T17:23:40.279Z,20.90
2019-05-26T17:26:09.219Z,20.80
2019-05-26T17:28:37.915Z,20.70
2019-05-26T17:31:06.857Z,20.90
2019-05-26T17:33:35.608Z,20.90
2019-05-26T17:36:04.535Z,20.80
2019-05-26T17:38:33.283Z,20.70
2019-05-26T17:41:02.384Z,20.70
2019-05-26T17:43:31.138Z,20.70
2019-05-26T17:45:59.906Z,20.70
2019-05-26T17:48:29.071Z,20.60
2019-05-26T17:50:57.813Z,20.60
2019-05-26T17:53:26.535Z,20.60
2019-05-26T17:55:55.430Z,20.70
2019-05-26T17:58:24.176Z,20.70
2019-05-26T18:00:53.028Z,20.80
2019-05-26T18:03:21.766Z,20.80
2019-05-26T18:05:50.574Z,20.80
2019-05-26T18:08:19.392Z,20.80
2019-05-26T18:10:48.121Z,20.80
2019-05-26T18:13:16.950Z,20.80
2019-05-26T18:15:45.862Z,20.80
2019-05-26T18:18:14.572Z,20.80
2019-05-26T18:20:43.389Z,20.80
2019-05-26T18:23:12.135Z,20.80
2019-05-26T18:25:41.032Z,20.70
2019-05-26T18:28:09.817Z,20.70
2019-05-26T18:33:24.923Z,20.50
2019-05-26T18:35:53.736Z,20.50
2019-05-26T18:38:22.573Z,20.40
2019-05-26T18:40:51.306Z,20.30
2019-05-26T18:43:20.127Z,20.30
2019-05-26T18:45:49.067Z,20.20
2019-05-26T18:48:17.965Z,20.20
2019-05-26T18:50:46.890Z,20.20
2019-05-26T18:53:15.789Z,20.10
2019-05-26T18:55:44.712Z,20.10
2019-05-26T18:58:13.489Z,20.10
2019-05-26T19:00:42.256Z,20.00
2019-05-26T19:03:11.050Z,20.10
2019-05-26T19:05:39.771Z,20.00
2019-05-26T19:08:08.848Z,20.00
2019-05-26T19:10:37.580Z,19.90
2019-05-26T19:13:06.354Z,19.90
2019-05-26T19:15:35.060Z,19.90
2019-05-26T19:18:18.717Z,19.90
2019-05-26T19:20:34.310Z,19.80
2019-05-26T19:23:03.098Z,19.80
2019-05-26T19:25:31.876Z,19.80
2019-05-26T19:28:00.634Z,19.80
2019-05-26T19:30:29.459Z,19.80
2019-05-26T19:32:58.253Z,19.70
2019-05-26T19:35:26.973Z,19.70
2019-05-26T19:37:55.749Z,19.70
2019-05-26T19:40:24.527Z,19.70
2019-05-26T19:42:53.283Z,19.70
2019-05-26T19:45:22.030Z,19.70
2019-05-26T19:47:50.798Z,19.70
2019-05-26T19:50:19.569Z,19.60
2019-05-26T19:52:49.973Z,19.60
2019-05-26T19:55:18.722Z,19.60
2019-05-26T19:57:48.312Z,19.50
2019-05-26T20:00:18.281Z,19.50
2019-05-26T20:02:47.168Z,19.50
2019-05-26T20:05:18.067Z,19.50
2019-05-26T20:07:47.111Z,19.50
2019-05-26T20:10:18.856Z,19.50
2019-05-26T20:12:47.677Z,19.50
2019-05-26T20:15:16.413Z,19.50
2019-05-26T20:17:45.139Z,19.50
2019-05-26T20:20:13.986Z,19.50
2019-05-26T20:22:42.860Z,19.50
2019-05-26T20:25:11.699Z,19.50
2019-05-26T20:27:40.420Z,19.50
2019-05-26T20:30:09.464Z,19.50
2019-05-26T20:32:38.448Z,19.40
2019-05-26T20:35:07.277Z,19.40
2019-05-26T20:37:36.128Z,19.40
2019-05-26T20:40:05.086Z,19.40
2019-05-26T20:42:33.881Z,19.30
2019-05-26T20:45:02.609Z,19.30
2019-05-26T20:47:31.396Z,19.30
2019-05-26T20:50:00.123Z,19.30
2019-05-26T20:52:28.870Z,19.30
2019-05-26T20:54:57.720Z,19.20
2019-05-26T20:57:26.523Z,19.20
2019-05-26T20:59:55.241Z,19.20
2019-05-26T21:02:23.915Z,19.20
2019-05-26T21:04:52.665Z,19.20
2019-05-26T21:07:21.465Z,19.10
2019-05-26T21:09:50.224Z,19.10
2019-05-26T21:12:18.896Z,19.00
2019-05-26T21:14:47.681Z,18.90
2019-05-26T21:17:16.367Z,18.90
2019-05-26T21:19:45.167Z,18.90
2019-05-26T21:22:13.872Z,18.80
2019-05-26T21:24:42.534Z,18.80
2019-05-26T21:27:11.230Z,18.70
2019-05-26T21:29:39.971Z,18.70
2019-05-26T21:32:08.692Z,18.70
2019-05-26T21:34:37.367Z,18.60
2019-05-26T21:37:06.323Z,18.60
2019-05-26T21:39:35.071Z,18.60
2019-05-26T21:42:03.816Z,18.50
2019-05-26T21:44:32.649Z,18.50
2019-05-26T21:47:01.501Z,18.40
2019-05-26T21:49:30.344Z,18.40
2019-05-26T21:51:59.051Z,18.40
2019-05-26T21:54:27.919Z,18.30
2019-05-26T21:56:56.703Z,18.30
2019-05-26T21:59:25.518Z,18.30
2019-05-26T22:01:54.202Z,18.20
2019-05-26T22:04:22.942Z,18.20
2019-05-26T22:06:51.983Z,18.20
2019-05-26T22:09:20.735Z,18.20
2019-05-26T22:11:49.526Z,18.10
2019-05-26T22:14:18.291Z,18.10
2019-05-26T22:16:46.971Z,18.10
2019-05-26T22:19:16.532Z,18.10
2019-05-26T22:21:45.286Z,18.10
2019-05-26T22:24:14.013Z,18.00
2019-05-26T22:26:42.743Z,18.00
2019-05-26T22:29:11.443Z,18.00
2019-05-26T22:31:40.272Z,18.00
2019-05-26T22:34:09.041Z,18.00
2019-05-26T22:36:37.782Z,17.90
2019-05-26T22:39:06.881Z,17.90
2019-05-26T22:41:35.616Z,17.90
2019-05-26T22:44:04.475Z,17.90
2019-05-26T22:46:33.307Z,17.80
2019-05-26T22:49:02.218Z,17.80
2019-05-26T22:51:30.924Z,17.70
2019-05-26T22:53:59.745Z,17.70
2019-05-26T22:56:28.586Z,17.70
2019-05-26T22:58:57.349Z,17.70
2019-05-26T23:01:26.155Z,17.70
2019-05-26T23:03:54.851Z,17.60
2019-05-26T23:06:23.554Z,17.60
2019-05-26T23:08:52.264Z,17.60
2019-05-26T23:11:20.968Z,17.50
2019-05-26T23:13:49.828Z,17.50
2019-05-26T23:16:18.645Z,17.50
2019-05-26T23:18:47.417Z,17.40
2019-05-26T23:21:16.179Z,17.40
2019-05-26T23:23:44.941Z,17.40
2019-05-26T23:26:13.627Z,17.40
2019-05-26T23:28:42.384Z,17.30
2019-05-26T23:31:11.259Z,17.30
2019-05-26T23:33:40.019Z,17.30
2019-05-26T23:36:08.775Z,17.20
2019-05-26T23:38:37.563Z,17.20
2019-05-26T23:41:06.424Z,17.10
2019-05-26T23:43:35.217Z,17.10
2019-05-26T23:46:03.978Z,17.10
2019-05-26T23:48:32.863Z,17.10
2019-05-26T23:51:01.639Z,17.10
2019-05-26T23:53:30.481Z,16.90
2019-05-26T23:55:59.252Z,16.80
2019-05-26T23:58:27.967Z,16.70
